Time;durP1;ratioP1;P1;durP2;ratioP2;P2;SDS_P1;SDS_P2;PMS_P1;PMS_P2;Temp;Humidity;BMP_temperature;BMP_pressure;BME280_temperature;BME280_humidity;BME280_pressure;Samples;Min_cycle;Max_cycle;Signal;HPM_P1;HPM_P2
2021/08/13 00:00:23;;;;;;;17.43;10.00;;;22.00;99.90;;;;;;4992052;28;20241;-70
2021/08/13 00:02:48;;;;;;;8.90;8.17;;;21.90;99.90;;;;;;4986262;28;20188;-70
2021/08/13 00:05:14;;;;;;;9.97;8.93;;;21.90;99.90;;;;;;4972987;28;20190;-70
2021/08/13 00:07:40;;;;;;;10.20;9.30;;;21.90;99.90;;;;;;4972898;28;20180;-70
2021/08/13 00:10:07;;;;;;;10.93;9.10;;;21.90;99.90;;;;;;4972650;28;20182;-70
2021/08/13 00:12:32;;;;;;;10.30;9.30;;;21.80;99.90;;;;;;4972883;28;20164;-70
2021/08/13 00:14:59;;;;;;;9.43;8.63;;;21.70;99.90;;;;;;4972864;28;20768;-70
2021/08/13 00:17:26;;;;;;;11.30;10.20;;;21.80;99.90;;;;;;4972982;28;20171;-70
2021/08/13 00:19:53;;;;;;;8.97;8.20;;;21.80;99.90;;;;;;4972527;28;20789;-71
2021/08/13 00:22:18;;;;;;;10.10;9.20;;;21.90;99.90;;;;;;4972776;28;20523;-70
2021/08/13 00:24:44;;;;;;;10.73;9.23;;;21.80;99.90;;;;;;4972850;28;20506;-70
2021/08/13 00:27:10;;;;;;;10.40;9.40;;;21.80;99.90;;;;;;4972886;28;20255;-70
2021/08/13 00:29:36;;;;;;;10.43;9.43;;;21.70;99.90;;;;;;4972358;28;20708;-70
2021/08/13 00:32:02;;;;;;;9.97;9.00;;;21.60;99.90;;;;;;4972923;28;20447;-70
2021/08/13 00:34:28;;;;;;;9.00;8.20;;;21.70;99.90;;;;;;4955326;28;20419;-70
2021/08/13 00:36:53;;;;;;;9.50;8.60;;;21.70;99.90;;;;;;4972776;28;20172;-70
2021/08/13 00:39:19;;;;;;;9.63;8.63;;;21.70;99.90;;;;;;4972424;28;20183;-70
2021/08/13 00:41:44;;;;;;;9.67;8.87;;;21.70;99.90;;;;;;4976285;28;20204;-70
2021/08/13 00:44:10;;;;;;;9.80;9.00;;;21.70;99.90;;;;;;4976276;28;20180;-70
2021/08/13 00:46:36;;;;;;;11.40;8.83;;;21.60;99.90;;;;;;4976213;28;20172;-70
2021/08/13 00:49:01;;;;;;;11.23;10.10;;;21.50;99.90;;;;;;4975842;28;20188;-70
2021/08/13 00:51:27;;;;;;;10.70;9.70;;;21.50;99.90;;;;;;4976169;28;20192;-70
2021/08/13 00:53:53;;;;;;;10.03;9.00;;;21.50;99.90;;;;;;4976085;28;20235;-70
2021/08/13 00:56:20;;;;;;;9.90;9.07;;;21.50;99.90;;;;;;4990250;28;20259;-70
2021/08/13 00:58:47;;;;;;;9.80;8.20;;;21.50;99.90;;;;;;4994581;28;20418;-70
2021/08/13 01:01:12;;;;;;;9.93;9.13;;;21.50;99.90;;;;;;4975943;28;20475;-70
2021/08/13 01:03:39;;;;;;;10.00;9.03;;;21.50;99.90;;;;;;4976028;28;20454;-70
2021/08/13 01:06:13;;;;;;;11.23;10.20;;;21.50;99.90;;;;;;4975907;28;20181;-70
2021/08/13 01:08:40;;;;;;;10.70;9.80;;;21.40;99.90;;;;;;4975524;28;20458;-70
2021/08/13 01:11:47;;;;;;;10.67;9.60;;;21.40;99.90;;;;;;4975954;28;20945;-70
2021/08/13 01:14:40;;;;;;;11.37;10.37;;;21.30;99.90;;;;;;4948691;28;20432;-70
2021/08/13 01:17:08;;;;;;;10.53;9.53;;;21.20;99.90;;;;;;4975619;28;20408;-70
2021/08/13 01:20:17;;;;;;;10.93;9.83;;;21.20;99.90;;;;;;4975371;28;20482;-71
2021/08/13 01:22:51;;;;;;;10.63;8.90;;;21.20;99.90;;;;;;4975700;28;20466;-70
2021/08/13 01:25:20;;;;;;;11.17;10.17;;;21.30;99.90;;;;;;4975583;28;20407;-70
2021/08/13 01:27:49;;;;;;;11.83;10.73;;;21.20;99.90;;;;;;4980481;28;20769;-70
2021/08/13 01:30:18;;;;;;;10.33;9.53;;;21.20;99.90;;;;;;4986399;28;20424;-70
2021/08/13 01:33:08;;;;;;;10.90;9.90;;;21.20;99.90;;;;;;4975426;28;20420;-70
2021/08/13 01:35:40;;;;;;;9.83;8.90;;;21.10;99.90;;;;;;4975318;28;20510;-70
2021/08/13 01:38:19;;;;;;;11.57;10.47;;;21.10;99.90;;;;;;4975205;28;20435;-70
2021/08/13 01:40:49;;;;;;;11.43;10.33;;;21.00;99.90;;;;;;4975185;28;20811;-70
2021/08/13 01:43:23;;;;;;;10.83;9.90;;;21.00;99.90;;;;;;4976259;28;20450;-70
2021/08/13 01:45:50;;;;;;;10.87;9.83;;;21.00;99.90;;;;;;4975293;28;20420;-70
2021/08/13 01:48:18;;;;;;;9.90;9.00;;;21.00;99.90;;;;;;4993202;28;20462;-70
2021/08/13 01:50:44;;;;;;;11.70;10.57;;;21.00;99.90;;;;;;4986007;28;20972;-70
2021/08/13 01:53:13;;;;;;;11.40;10.30;;;20.90;99.90;;;;;;4975096;28;20415;-70
2021/08/13 01:55:39;;;;;;;11.07;9.97;;;20.80;99.90;;;;;;4974978;28;20442;-71
2021/08/13 01:58:05;;;;;;;12.83;11.53;;;20.80;99.90;;;;;;4974828;28;20424;-71
2021/08/13 02:00:31;;;;;;;12.03;10.13;;;20.80;99.90;;;;;;4974611;28;20449;-70
2021/08/13 02:02:59;;;;;;;11.80;10.60;;;20.90;99.90;;;;;;4982720;28;20474;-70
2021/08/13 02:05:27;;;;;;;10.47;9.47;;;20.90;99.90;;;;;;4976759;28;20262;-70
2021/08/13 02:07:56;;;;;;;10.83;9.73;;;20.90;99.90;;;;;;4994196;28;20496;-70
2021/08/13 02:10:22;;;;;;;14.80;11.50;;;20.90;99.90;;;;;;4993884;28;20473;-70
2021/08/13 02:12:48;;;;;;;11.27;10.27;;;21.00;99.90;;;;;;4994104;28;20912;-70
2021/08/13 02:15:13;;;;;;;10.47;9.50;;;21.00;99.90;;;;;;4986576;28;20624;-70
2021/08/13 02:17:57;;;;;;;11.93;9.90;;;20.80;99.90;;;;;;4974601;28;20544;-70
2021/08/13 02:20:26;;;;;;;9.87;9.07;;;20.80;99.90;;;;;;4974134;28;20585;-70
2021/08/13 02:22:52;;;;;;;10.33;9.43;;;20.80;99.90;;;;;;4979821;28;20951;-71
2021/08/13 02:25:17;;;;;;;11.00;10.00;;;20.80;99.90;;;;;;4974750;28;20428;-70
2021/08/13 02:27:43;;;;;;;12.20;9.67;;;20.90;99.90;;;;;;4974254;28;20250;-70
2021/08/13 02:30:09;;;;;;;10.73;9.73;;;20.90;99.90;;;;;;4977205;28;20170;-70
2021/08/13 02:32:35;;;;;;;10.83;9.83;;;20.90;99.90;;;;;;4993719;28;20510;-70
2021/08/13 02:35:02;;;;;;;11.40;10.20;;;20.80;99.90;;;;;;4993601;28;20970;-70
2021/08/13 02:37:34;;;;;;;11.40;10.00;;;20.80;99.90;;;;;;4993251;28;20418;-70
2021/08/13 02:40:10;;;;;;;11.20;10.13;;;20.70;99.90;;;;;;4993310;28;20426;-70
2021/08/13 02:42:45;;;;;;;11.73;10.60;;;20.70;99.90;;;;;;4966733;28;20435;-70
2021/08/13 02:45:13;;;;;;;11.37;10.27;;;20.70;99.90;;;;;;4974089;28;20427;-70
2021/08/13 02:47:40;;;;;;;11.03;10.03;;;20.70;99.90;;;;;;4974079;28;20420;-70
2021/08/13 02:50:08;;;;;;;13.80;12.37;;;20.70;99.90;;;;;;4973641;28;20808;-70
2021/08/13 02:52:46;;;;;;;11.47;10.33;;;20.80;99.90;;;;;;4988266;28;20765;-70
2021/08/13 02:55:16;;;;;;;11.60;10.50;;;20.80;99.90;;;;;;4993237;28;20411;-70
2021/08/13 02:57:43;;;;;;;16.20;14.40;;;20.50;99.90;;;;;;4993236;28;20411;-70
2021/08/13 03:00:09;;;;;;;11.73;10.73;;;20.60;99.90;;;;;;4992879;28;20909;-70
2021/08/13 03:02:37;;;;;;;11.80;10.70;;;20.70;99.90;;;;;;4992714;28;20505;-70
2021/08/13 03:05:06;;;;;;;11.93;10.77;;;20.70;99.90;;;;;;4993104;28;20838;-70
2021/08/13 03:07:33;;;;;;;11.50;10.50;;;20.80;99.90;;;;;;4993069;28;20831;-70
2021/08/13 03:10:01;;;;;;;12.20;11.00;;;21.00;99.90;;;;;;4992681;28;20548;-70
2021/08/13 03:12:28;;;;;;;11.93;10.73;;;20.90;99.90;;;;;;4993114;28;21014;-70
2021/08/13 03:14:54;;;;;;;11.87;10.80;;;21.00;99.90;;;;;;4993009;28;20423;-70
2021/08/13 03:17:21;;;;;;;12.50;11.33;;;21.10;99.90;;;;;;4993058;28;20422;-70
2021/08/13 03:19:46;;;;;;;12.30;11.20;;;21.10;99.90;;;;;;4987370;28;20444;-70
2021/08/13 03:22:12;;;;;;;12.03;10.93;;;21.10;99.90;;;;;;4973859;28;20542;-70
2021/08/13 03:24:38;;;;;;;12.73;11.30;;;21.00;99.90;;;;;;4973464;28;20180;-70
2021/08/13 03:27:04;;;;;;;11.43;10.40;;;21.00;99.90;;;;;;4973459;28;20427;-70
2021/08/13 03:29:30;;;;;;;12.00;10.90;;;21.00;99.90;;;;;;4972919;28;20581;-70
2021/08/13 03:31:59;;;;;;;11.60;10.37;;;21.00;99.90;;;;;;4973329;28;20435;-70
2021/08/13 03:34:25;;;;;;;12.40;10.40;;;21.00;99.90;;;;;;4974874;28;20637;-70
2021/08/13 03:36:50;;;;;;;12.00;10.87;;;21.10;99.90;;;;;;4975489;28;20425;-70
2021/08/13 03:39:16;;;;;;;12.37;11.27;;;21.10;99.90;;;;;;4992430;28;20182;-70
2021/08/13 03:41:42;;;;;;;11.70;10.70;;;21.00;99.90;;;;;;4992549;28;20556;-70
2021/08/13 03:44:07;;;;;;;12.53;11.33;;;21.00;99.90;;;;;;4992659;28;20230;-71
2021/08/13 03:46:33;;;;;;;11.17;10.07;;;21.00;99.90;;;;;;4992636;28;20653;-71
2021/08/13 03:48:58;;;;;;;11.83;10.83;;;21.10;99.90;;;;;;4990604;28;20202;-70
2021/08/13 03:51:24;;;;;;;11.27;10.17;;;21.10;99.90;;;;;;4992906;28;20194;-70
2021/08/13 03:53:49;;;;;;;11.83;10.63;;;21.10;99.90;;;;;;4975145;28;20178;-70
2021/08/13 03:56:15;;;;;;;12.43;11.30;;;21.10;99.90;;;;;;4992696;28;20168;-70
2021/08/13 03:58:41;;;;;;;12.50;11.10;;;21.10;99.90;;;;;;4992172;28;20195;-71
2021/08/13 04:01:08;;;;;;;11.90;10.60;;;21.20;99.90;;;;;;4992425;28;20215;-70
2021/08/13 04:03:34;;;;;;;11.50;10.60;;;21.20;99.90;;;;;;4992513;28;20431;-70
2021/08/13 04:05:59;;;;;;;11.47;10.37;;;21.10;99.90;;;;;;4992377;28;20777;-70
2021/08/13 04:08:25;;;;;;;11.80;10.80;;;21.00;99.90;;;;;;4992156;28;20661;-70
2021/08/13 04:10:50;;;;;;;11.70;10.80;;;21.00;99.90;;;;;;4987730;28;20290;-70
2021/08/13 04:13:16;;;;;;;12.23;10.77;;;20.80;99.90;;;;;;4973063;28;20172;-70
2021/08/13 04:15:42;;;;;;;11.13;9.97;;;20.90;99.90;;;;;;4980253;28;20186;-70
2021/08/13 04:18:07;;;;;;;11.57;10.47;;;20.90;99.90;;;;;;4996268;28;20680;-70
2021/08/13 04:20:33;;;;;;;13.50;11.53;;;20.90;99.90;;;;;;4996187;28;20210;-70
2021/08/13 04:22:58;;;;;;;12.20;11.10;;;20.90;99.90;;;;;;4996196;28;20667;-70
2021/08/13 04:25:24;;;;;;;11.80;10.70;;;20.90;99.90;;;;;;4996138;28;20665;-70
2021/08/13 04:27:49;;;;;;;15.27;13.63;;;20.90;99.90;;;;;;4978464;28;20187;-70
2021/08/13 04:30:15;;;;;;;12.87;11.57;;;21.00;99.90;;;;;;4988602;28;20575;-70
2021/08/13 04:32:41;;;;;;;11.90;10.80;;;21.00;99.90;;;;;;4976563;28;20212;-70
2021/08/13 04:35:08;;;;;;;13.70;12.27;;;21.00;99.90;;;;;;4976451;28;20176;-70
2021/08/13 04:37:34;;;;;;;11.27;10.27;;;21.00;99.90;;;;;;4959129;28;20506;-70
2021/08/13 04:39:59;;;;;;;14.53;10.83;;;21.10;99.90;;;;;;4976099;28;20530;-70
2021/08/13 04:42:25;;;;;;;11.27;10.27;;;21.10;99.90;;;;;;4976415;28;20568;-70
2021/08/13 04:44:51;;;;;;;11.77;10.57;;;21.00;99.90;;;;;;4988028;28;20234;-70
2021/08/13 04:47:16;;;;;;;12.67;11.43;;;21.10;99.90;;;;;;4995848;28;20583;-70
2021/08/13 04:49:42;;;;;;;12.23;11.13;;;21.10;99.90;;;;;;4995246;28;20731;-70
2021/08/13 04:52:07;;;;;;;11.10;10.20;;;21.10;99.90;;;;;;4995613;28;20184;-70
2021/08/13 04:54:33;;;;;;;12.47;11.37;;;21.10;99.90;;;;;;4976598;28;20231;-70
2021/08/13 04:56:59;;;;;;;11.73;10.63;;;21.00;99.90;;;;;;4976250;28;20176;-70
2021/08/13 04:59:26;;;;;;;12.60;11.30;;;20.80;99.90;;;;;;4975750;28;20168;-70
2021/08/13 05:01:51;;;;;;;11.50;10.40;;;20.90;99.90;;;;;;4975893;28;20459;-70
2021/08/13 05:04:17;;;;;;;11.70;10.50;;;20.90;99.90;;;;;;4975893;28;20426;-70
2021/08/13 05:06:43;;;;;;;12.10;11.00;;;21.00;99.90;;;;;;4976024;28;20502;-70
2021/08/13 05:09:09;;;;;;;12.53;11.33;;;21.00;99.90;;;;;;4977058;28;20192;-70
2021/08/13 05:11:34;;;;;;;13.40;12.10;;;21.00;99.90;;;;;;4995377;28;20442;-70
2021/08/13 05:14:00;;;;;;;11.67;10.60;;;20.90;99.90;;;;;;4989395;28;20255;-70
2021/08/13 05:16:26;;;;;;;14.03;11.80;;;21.10;99.90;;;;;;4958439;28;20177;-70
2021/08/13 05:18:51;;;;;;;12.23;10.93;;;21.10;99.90;;;;;;4981340;28;20184;-70
2021/08/13 05:21:17;;;;;;;12.37;11.17;;;21.10;99.90;;;;;;4975369;28;20713;-70
2021/08/13 05:23:42;;;;;;;14.40;11.27;;;21.10;99.90;;;;;;4975583;28;20184;-70
2021/08/13 05:26:08;;;;;;;12.07;11.07;;;21.00;99.90;;;;;;4957680;28;20673;-70
2021/08/13 05:28:33;;;;;;;12.27;11.03;;;21.10;99.90;;;;;;4975142;28;20634;-70
2021/08/13 05:30:59;;;;;;;13.20;11.87;;;21.00;99.90;;;;;;4973397;28;20192;-70
2021/08/13 05:33:24;;;;;;;13.30;12.00;;;20.80;99.90;;;;;;4975421;28;20665;-70
2021/08/13 05:35:50;;;;;;;11.60;10.50;;;20.80;99.90;;;;;;4974946;28;20198;-70
2021/08/13 05:38:15;;;;;;;13.37;11.77;;;20.90;99.90;;;;;;4956201;29;20180;-70
2021/08/13 05:40:41;;;;;;;12.53;11.30;;;21.20;99.90;;;;;;4955827;28;20192;-70
2021/08/13 05:43:07;;;;;;;16.63;11.93;;;21.30;99.90;;;;;;4956061;29;20177;-71
2021/08/13 05:45:32;;;;;;;12.10;11.10;;;21.40;99.90;;;;;;4955831;29;20432;-70
2021/08/13 05:47:58;;;;;;;16.17;11.57;;;21.50;99.90;;;;;;4955816;29;20192;-71
2021/08/13 05:50:24;;;;;;;13.30;12.00;;;21.40;99.90;;;;;;4955434;28;20208;-70
2021/08/13 05:52:49;;;;;;;11.40;10.30;;;21.40;99.90;;;;;;4955833;29;20184;-70
2021/08/13 05:55:15;;;;;;;12.30;11.10;;;21.40;99.90;;;;;;4955879;29;20165;-70
2021/08/13 05:57:42;;;;;;;13.47;12.17;;;21.50;99.90;;;;;;4955704;29;20213;-70
2021/08/13 06:00:08;;;;;;;13.17;11.87;;;21.50;99.90;;;;;;4955343;28;20653;-70
2021/08/13 06:02:34;;;;;;;12.77;11.73;;;21.70;99.90;;;;;;4955536;29;20412;-70
2021/08/13 06:04:59;;;;;;;12.60;11.37;;;21.90;99.90;;;;;;4955554;29;20476;-70
2021/08/13 06:07:25;;;;;;;11.70;10.70;;;22.10;99.90;;;;;;4955479;29;20417;-70
2021/08/13 06:09:50;;;;;;;13.20;11.97;;;22.30;99.90;;;;;;4955237;29;20224;-70
2021/08/13 06:12:17;;;;;;;12.37;11.10;;;22.50;99.90;;;;;;4957608;28;20211;-70
2021/08/13 06:14:43;;;;;;;12.40;11.30;;;22.60;99.90;;;;;;4965316;28;20172;-70
2021/08/13 06:17:08;;;;;;;12.70;11.47;;;22.60;99.90;;;;;;4962434;28;20498;-70
2021/08/13 06:19:34;;;;;;;12.87;11.77;;;22.80;99.90;;;;;;4953774;29;20173;-70
2021/08/13 06:22:00;;;;;;;13.63;11.40;;;22.90;99.90;;;;;;4965398;28;20220;-70
2021/08/13 06:24:27;;;;;;;12.33;11.13;;;23.00;99.90;;;;;;4956621;28;20181;-70
2021/08/13 06:26:52;;;;;;;11.73;10.50;;;23.30;99.90;;;;;;4960143;28;20815;-70
2021/08/13 06:29:20;;;;;;;11.70;10.80;;;23.60;99.90;;;;;;4973725;28;20459;-70
2021/08/13 06:31:47;;;;;;;12.47;11.37;;;23.80;99.90;;;;;;4974679;28;20282;-70
2021/08/13 06:34:12;;;;;;;14.70;11.10;;;24.00;99.90;;;;;;4972901;28;20428;-70
2021/08/13 06:36:38;;;;;;;12.10;10.90;;;24.30;99.90;;;;;;4954756;28;20427;-70
2021/08/13 06:39:03;;;;;;;12.43;11.20;;;24.50;99.90;;;;;;4982850;28;20266;-64
2021/08/13 06:41:29;;;;;;;11.47;10.27;;;24.70;99.90;;;;;;4976989;28;20206;-64
2021/08/13 06:43:54;;;;;;;13.03;11.40;;;24.80;99.90;;;;;;4975169;28;20265;-65
2021/08/13 06:46:20;;;;;;;11.60;10.40;;;25.10;99.90;;;;;;4956652;28;20642;-65
2021/08/13 06:48:45;;;;;;;10.60;9.70;;;25.40;99.90;;;;;;4973697;28;20200;-64
2021/08/13 06:51:11;;;;;;;11.20;9.90;;;25.60;99.90;;;;;;4977226;28;20192;-65
2021/08/13 06:53:36;;;;;;;12.10;11.03;;;25.60;99.90;;;;;;4973943;28;20176;-64
2021/08/13 06:56:02;;;;;;;10.97;9.83;;;25.80;99.90;;;;;;4974039;28;20187;-64
2021/08/13 06:58:27;;;;;;;13.67;12.47;;;26.00;99.90;;;;;;4973270;28;20702;-64
2021/08/13 07:00:53;;;;;;;17.70;13.80;;;26.20;99.90;;;;;;4973801;28;20196;-65
2021/08/13 07:03:18;;;;;;;11.70;10.50;;;26.50;99.90;;;;;;4973605;28;20184;-65
2021/08/13 07:05:44;;;;;;;10.53;9.63;;;26.80;99.90;;;;;;4977051;28;20259;-65
2021/08/13 07:08:11;;;;;;;10.23;9.20;;;27.00;99.90;;;;;;4973658;28;20650;-65
2021/08/13 07:10:37;;;;;;;10.37;9.47;;;27.20;99.90;;;;;;4973089;28;20208;-65
2021/08/13 07:13:03;;;;;;;11.07;10.07;;;27.40;99.90;;;;;;4973639;28;20423;-65
2021/08/13 07:15:28;;;;;;;10.53;9.37;;;27.60;99.90;;;;;;4974358;28;20181;-65
2021/08/13 07:17:54;;;;;;;8.80;8.00;;;27.60;99.90;;;;;;4970039;28;20180;-65
2021/08/13 07:20:20;;;;;;;10.73;9.63;;;27.50;99.90;;;;;;4972123;28;20479;-65
2021/08/13 07:22:45;;;;;;;10.50;9.17;;;27.30;99.90;;;;;;4974663;28;20557;-65
2021/08/13 07:25:11;;;;;;;8.37;7.73;;;27.40;99.90;;;;;;4974537;28;20428;-65
2021/08/13 07:27:37;;;;;;;8.20;7.40;;;27.40;99.90;;;;;;4974441;28;20180;-65
2021/08/13 07:30:04;;;;;;;8.40;7.70;;;27.40;99.90;;;;;;4971609;28;20225;-65
2021/08/13 07:32:30;;;;;;;7.57;6.53;;;27.40;99.90;;;;;;4991828;28;20464;-65
2021/08/13 07:34:55;;;;;;;12.50;6.70;;;27.30;99.90;;;;;;4985260;28;20455;-65
2021/08/13 07:37:21;;;;;;;8.20;6.80;;;27.40;99.90;;;;;;4976870;28;20223;-65
2021/08/13 07:39:48;;;;;;;7.67;6.90;;;27.70;99.90;;;;;;4983970;28;20184;-65
2021/08/13 07:42:14;;;;;;;8.73;7.93;;;28.00;99.90;;;;;;4980919;28;20196;-65
2021/08/13 07:44:40;;;;;;;9.30;6.67;;;28.00;99.90;;;;;;4992390;28;20477;-65
2021/08/13 07:47:05;;;;;;;10.03;8.60;;;28.20;99.90;;;;;;4990166;28;20434;-66
2021/08/13 07:49:31;;;;;;;8.47;7.50;;;28.30;99.90;;;;;;4972393;28;20254;-65
2021/08/13 07:51:56;;;;;;;7.70;7.00;;;28.60;99.90;;;;;;4973045;28;20200;-65
2021/08/13 07:54:22;;;;;;;8.50;6.90;;;28.80;99.90;;;;;;4979864;28;20263;-66
2021/08/13 07:56:47;;;;;;;12.30;7.27;;;29.00;99.90;;;;;;4992480;28;20203;-65
2021/08/13 07:59:13;;;;;;;6.67;6.07;;;28.80;99.90;;;;;;4987931;28;20175;-65
2021/08/13 08:01:38;;;;;;;7.13;6.53;;;28.70;99.90;;;;;;4976385;28;20204;-65
2021/08/13 08:04:04;;;;;;;10.20;7.10;;;28.50;99.90;;;;;;4983231;28;20238;-65
2021/08/13 08:06:31;;;;;;;6.47;5.80;;;28.60;99.90;;;;;;4991495;28;20179;-66
2021/08/13 08:08:57;;;;;;;7.67;5.47;;;28.60;99.90;;;;;;4992034;28;20191;-65
2021/08/13 08:11:22;;;;;;;7.93;6.57;;;28.70;99.90;;;;;;4992297;28;20435;-65
2021/08/13 08:13:48;;;;;;;7.50;6.27;;;29.20;99.90;;;;;;4978554;28;20307;-65
2021/08/13 08:16:14;;;;;;;7.33;6.10;;;29.60;99.80;;;;;;4972783;28;20594;-65
2021/08/13 08:18:39;;;;;;;7.60;6.90;;;29.60;99.50;;;;;;4972627;28;20177;-65
2021/08/13 08:21:05;;;;;;;6.60;6.00;;;29.90;98.90;;;;;;4980968;28;20222;-66
2021/08/13 08:23:31;;;;;;;10.30;6.10;;;30.40;98.80;;;;;;4987627;28;20303;-66
2021/08/13 08:25:56;;;;;;;8.97;6.77;;;31.20;97.40;;;;;;4990621;28;20179;-66
2021/08/13 08:28:22;;;;;;;10.10;5.93;;;31.70;96.40;;;;;;4961294;28;20212;-66
2021/08/13 08:30:47;;;;;;;8.97;6.00;;;31.50;95.90;;;;;;4971602;28;20259;-66
2021/08/13 08:33:13;;;;;;;11.17;6.67;;;30.80;96.80;;;;;;4972653;28;20179;-66
2021/08/13 08:35:38;;;;;;;7.70;6.90;;;30.50;97.00;;;;;;4972782;28;20211;-66
2021/08/13 08:38:04;;;;;;;6.83;6.23;;;30.30;96.70;;;;;;4977110;28;20227;-65
2021/08/13 08:40:32;;;;;;;10.00;6.23;;;30.70;96.80;;;;;;4985039;28;20218;-66
2021/08/13 08:43:00;;;;;;;7.27;6.40;;;31.20;96.10;;;;;;4992038;28;20616;-65
2021/08/13 08:45:28;;;;;;;6.90;6.30;;;31.60;95.20;;;;;;4992099;28;20765;-65
2021/08/13 08:47:58;;;;;;;7.80;7.00;;;31.80;95.30;;;;;;4992017;28;20423;-65
2021/08/13 08:50:25;;;;;;;7.47;6.70;;;31.60;95.00;;;;;;4989549;28;20454;-66
2021/08/13 08:52:51;;;;;;;7.20;6.60;;;31.50;94.60;;;;;;4992058;28;20465;-66
2021/08/13 08:55:17;;;;;;;6.67;6.10;;;31.90;95.30;;;;;;4985331;28;20444;-65
2021/08/13 08:57:44;;;;;;;8.40;6.37;;;32.50;95.10;;;;;;4974515;28;20452;-66
2021/08/13 09:00:10;;;;;;;8.47;6.90;;;32.40;94.50;;;;;;4972307;28;20222;-66
2021/08/13 09:02:36;;;;;;;7.47;6.70;;;33.00;93.60;;;;;;4975925;28;20523;-66
2021/08/13 09:05:03;;;;;;;8.40;6.10;;;33.30;93.00;;;;;;4975850;28;21099;-66
2021/08/13 09:07:28;;;;;;;8.33;6.70;;;33.20;92.40;;;;;;4976920;28;20195;-66
2021/08/13 09:09:54;;;;;;;8.53;7.10;;;33.40;92.10;;;;;;4975531;28;20720;-66
2021/08/13 09:12:21;;;;;;;9.53;6.50;;;33.10;91.80;;;;;;4975733;28;20199;-66
2021/08/13 09:14:47;;;;;;;8.10;6.80;;;33.30;91.90;;;;;;4975731;28;20510;-65
2021/08/13 09:17:13;;;;;;;8.03;6.37;;;33.40;92.10;;;;;;4975843;28;20415;-65
2021/08/13 09:19:46;;;;;;;8.03;6.70;;;33.40;91.30;;;;;;4979085;28;20438;-65
2021/08/13 09:22:17;;;;;;;8.23;6.67;;;33.90;91.10;;;;;;4990637;28;20760;-66
2021/08/13 09:24:48;;;;;;;7.53;6.60;;;34.40;90.70;;;;;;4973059;28;20491;-66
2021/08/13 09:27:26;;;;;;;8.23;7.43;;;34.40;90.40;;;;;;4978219;28;20467;-65
2021/08/13 09:30:14;;;;;;;7.60;6.83;;;34.00;88.70;;;;;;4975082;28;20463;-66
2021/08/13 09:32:42;;;;;;;8.30;7.60;;;34.20;89.00;;;;;;4975388;28;20427;-66
2021/08/13 09:35:09;;;;;;;7.43;6.73;;;35.00;86.70;;;;;;4975549;28;20975;-66
2021/08/13 09:37:36;;;;;;;8.07;7.27;;;35.60;85.10;;;;;;4993394;28;20422;-66
2021/08/13 09:40:03;;;;;;;7.90;7.13;;;36.40;84.50;;;;;;4992845;28;20435;-64
2021/08/13 09:42:35;;;;;;;9.60;6.67;;;36.60;82.10;;;;;;4994614;28;20477;-63
2021/08/13 09:45:03;;;;;;;8.77;7.70;;;35.90;81.90;;;;;;4994325;28;20422;-63
2021/08/13 09:47:47;;;;;;;9.47;7.30;;;35.30;81.40;;;;;;4994494;28;20426;-63
2021/08/13 09:50:16;;;;;;;7.50;6.80;;;34.40;83.90;;;;;;4994018;28;20494;-66
2021/08/13 09:53:02;;;;;;;10.00;7.77;;;34.60;84.90;;;;;;4982241;28;20489;-66
2021/08/13 09:55:28;;;;;;;7.83;7.13;;;35.60;83.00;;;;;;4974873;28;20459;-66
2021/08/13 09:57:53;;;;;;;8.63;7.93;;;36.20;80.40;;;;;;4974956;28;20448;-64
2021/08/13 10:00:19;;;;;;;9.80;7.47;;;35.80;79.30;;;;;;4973865;28;20259;-64
2021/08/13 10:02:46;;;;;;;8.47;6.20;;;36.80;78.50;;;;;;4974901;28;20187;-64
2021/08/13 10:05:25;;;;;;;7.27;6.40;;;38.20;75.70;;;;;;4973490;28;20268;-66
2021/08/13 10:08:02;;;;;;;9.33;6.93;;;38.90;72.30;;;;;;4969313;28;20471;-64
2021/08/13 10:10:32;;;;;;;9.67;8.67;;;38.70;71.20;;;;;;4974630;28;20483;-64
2021/08/13 10:12:58;;;;;;;7.70;7.10;;;38.70;71.00;;;;;;4974691;28;20415;-64
2021/08/13 10:15:53;;;;;;;10.10;6.80;;;38.80;70.30;;;;;;4975089;28;20620;-64
2021/08/13 10:18:18;;;;;;;8.57;7.30;;;39.40;68.10;;;;;;4955938;28;20438;-64
2021/08/13 10:20:50;;;;;;;8.60;7.80;;;39.30;67.30;;;;;;5003816;23;20481;-62
2021/08/13 10:23:16;;;;;;;8.50;7.70;;;39.40;66.50;;;;;;5033821;28;20533;-62
2021/08/13 10:25:41;;;;;;;8.23;7.53;;;39.80;66.20;;;;;;5033463;28;20413;-63
2021/08/13 10:28:07;;;;;;;8.33;7.60;;;40.00;65.60;;;;;;5033385;28;20170;-62
2021/08/13 10:30:33;;;;;;;8.57;7.10;;;39.50;64.70;;;;;;5032467;28;20170;-61
2021/08/13 10:33:02;;;;;;;9.30;8.27;;;39.20;65.70;;;;;;5013630;28;20417;-62
2021/08/13 10:35:32;;;;;;;8.50;7.70;;;38.80;66.10;;;;;;5013419;28;20565;-62
2021/08/13 10:38:00;;;;;;;9.00;8.20;;;38.80;66.10;;;;;;5013441;28;21013;-62
2021/08/13 10:40:26;;;;;;;10.10;9.20;;;38.80;66.00;;;;;;5013237;28;21011;-62
2021/08/13 10:42:53;;;;;;;10.90;9.90;;;38.70;65.40;;;;;;4995725;28;20520;-62
2021/08/13 10:45:26;;;;;;;10.80;9.10;;;38.20;66.30;;;;;;5013097;28;20207;-62
2021/08/13 10:48:02;;;;;;;10.40;9.30;;;37.00;67.80;;;;;;5013153;28;20898;-63
2021/08/13 10:50:29;;;;;;;11.77;9.30;;;35.60;71.30;;;;;;5012737;28;20444;-62
2021/08/13 10:52:54;;;;;;;11.53;10.50;;;35.20;72.40;;;;;;5013239;28;20505;-63
2021/08/13 10:55:42;;;;;;;10.47;9.47;;;35.00;73.20;;;;;;5013039;28;20472;-62
2021/08/13 10:58:09;;;;;;;10.07;9.33;;;34.80;74.50;;;;;;4995292;28;20171;-61
2021/08/13 11:01:04;;;;;;;11.17;10.13;;;34.70;75.90;;;;;;4994966;28;20491;-62
2021/08/13 11:03:30;;;;;;;10.20;9.30;;;34.70;76.50;;;;;;5012926;28;20417;-62
2021/08/13 11:05:58;;;;;;;11.43;10.50;;;34.40;77.30;;;;;;5013192;28;20410;-62
2021/08/13 11:08:40;;;;;;;10.83;9.80;;;33.80;78.00;;;;;;4995017;28;20290;-62
2021/08/13 11:11:10;;;;;;;10.07;9.10;;;33.70;79.50;;;;;;4995167;28;20476;-62
2021/08/13 11:13:36;;;;;;;11.50;10.03;;;35.90;76.00;;;;;;5012690;28;20406;-63
2021/08/13 11:16:03;;;;;;;11.17;10.10;;;37.50;71.60;;;;;;5012692;28;20410;-62
2021/08/13 11:18:39;;;;;;;10.47;9.47;;;37.10;71.10;;;;;;5012379;28;20911;-62
2021/08/13 11:21:09;;;;;;;11.00;10.10;;;36.90;71.40;;;;;;5012359;28;20833;-62
2021/08/13 11:24:02;;;;;;;11.00;10.00;;;37.90;69.40;;;;;;5012095;28;20520;-63
2021/08/13 11:26:58;;;;;;;10.80;10.00;;;38.80;67.40;;;;;;5012651;28;20851;-62
2021/08/13 11:29:30;;;;;;;9.97;9.17;;;39.80;65.80;;;;;;5012087;28;20522;-62
2021/08/13 11:31:57;;;;;;;10.93;10.13;;;41.10;63.50;;;;;;5012489;28;20437;-63
2021/08/13 11:34:52;;;;;;;11.50;10.60;;;41.60;61.00;;;;;;5012461;28;20445;-63
2021/08/13 11:37:38;;;;;;;10.50;9.37;;;40.90;61.60;;;;;;5012460;28;20418;-62
2021/08/13 11:40:13;;;;;;;10.90;10.10;;;41.00;61.20;;;;;;5012211;28;20426;-63
2021/08/13 11:42:50;;;;;;;11.43;10.60;;;40.70;60.50;;;;;;5012252;28;20490;-62
2021/08/13 11:45:17;;;;;;;12.23;11.03;;;41.30;58.80;;;;;;5012313;28;20405;-62
2021/08/13 11:47:51;;;;;;;11.83;10.83;;;40.50;59.70;;;;;;5012314;28;20440;-62
2021/08/13 11:50:18;;;;;;;12.40;11.30;;;39.10;61.70;;;;;;5012304;28;20452;-62
2021/08/13 11:52:48;;;;;;;10.63;9.63;;;39.50;61.80;;;;;;4994528;28;20441;-62
2021/08/13 11:55:25;;;;;;;11.37;9.77;;;40.70;60.00;;;;;;5012308;28;20426;-63
2021/08/13 11:57:55;;;;;;;10.50;9.50;;;41.20;58.50;;;;;;5012432;28;20496;-62
2021/08/13 12:00:26;;;;;;;9.87;9.17;;;42.40;58.20;;;;;;5011828;28;20414;-62
2021/08/13 12:03:09;;;;;;;11.07;9.80;;;43.80;56.20;;;;;;5012176;28;20533;-62
2021/08/13 12:05:37;;;;;;;11.00;10.00;;;43.60;54.90;;;;;;5012138;28;20418;-62
2021/08/13 12:08:08;;;;;;;10.90;10.00;;;42.20;56.60;;;;;;5012038;28;20429;-62
2021/08/13 12:10:35;;;;;;;10.50;9.70;;;41.90;56.60;;;;;;5011882;28;20592;-62
2021/08/13 12:13:08;;;;;;;10.90;9.97;;;41.60;56.80;;;;;;5011050;28;20438;-63
2021/08/13 12:15:36;;;;;;;10.73;9.93;;;41.00;57.80;;;;;;5011871;28;20440;-62
2021/08/13 12:18:04;;;;;;;11.07;10.17;;;42.10;56.30;;;;;;5012026;28;20475;-62
2021/08/13 12:20:30;;;;;;;11.53;10.30;;;41.50;56.70;;;;;;4991905;28;20434;-62
2021/08/13 12:23:13;;;;;;;10.10;9.30;;;40.70;57.60;;;;;;4992343;28;20454;-62
2021/08/13 12:25:42;;;;;;;10.20;9.30;;;40.80;57.50;;;;;;4992800;28;20489;-62
2021/08/13 12:28:09;;;;;;;9.67;8.97;;;40.50;57.40;;;;;;4991701;28;20419;-62
2021/08/13 12:30:35;;;;;;;11.20;10.10;;;40.10;58.20;;;;;;5007418;28;20438;-62
2021/08/13 12:33:04;;;;;;;9.93;9.10;;;40.10;58.10;;;;;;5006897;28;20512;-62
2021/08/13 12:35:38;;;;;;;9.90;9.00;;;40.50;57.90;;;;;;5012143;28;20866;-62
2021/08/13 12:38:05;;;;;;;9.40;8.80;;;42.30;56.20;;;;;;5015586;28;20492;-62
2021/08/13 12:40:39;;;;;;;10.53;9.70;;;43.70;54.20;;;;;;4997212;28;20468;-62